createdAt,value
2022-11-12T00:04:20.487Z,15.93
2022-11-12T00:09:22.150Z,13.43
2022-11-12T00:14:23.852Z,13.23
2022-11-12T00:19:25.537Z,14.53
2022-11-12T00:24:27.230Z,17.67
2022-11-12T00:29:28.954Z,23.48
2022-11-12T00:34:30.638Z,11.95
2022-11-12T00:39:33.558Z,19.30
2022-11-12T00:44:35.254Z,13.52
2022-11-12T00:49:36.921Z,14.30
2022-11-12T00:54:38.593Z,14.70
2022-11-12T00:59:40.279Z,13.65
2022-11-12T01:04:41.974Z,14.95
2022-11-12T01:09:43.657Z,14.83
2022-11-12T01:14:48.171Z,13.07
2022-11-12T01:19:50.495Z,13.37
2022-11-12T01:24:52.161Z,14.37
2022-11-12T01:29:53.818Z,13.17
2022-11-12T01:34:55.564Z,12.55
2022-11-12T01:39:57.318Z,16.42
2022-11-12T01:44:59.011Z,17.35
2022-11-12T01:50:32.319Z,16.23
2022-11-12T01:55:37.101Z,15.95
2022-11-12T02:00:43.279Z,14.57
2022-11-12T02:05:47.949Z,10.93
2022-11-12T02:10:51.086Z,10.83
2022-11-12T02:15:52.982Z,8.25
2022-11-12T02:20:57.488Z,7.82
2022-11-12T02:26:03.264Z,8.48
2022-11-12T02:31:04.981Z,8.27
2022-11-12T02:36:07.092Z,8.10
2022-11-12T02:41:08.790Z,8.23
2022-11-12T02:46:11.449Z,7.85
2022-11-12T02:51:13.687Z,10.87
2022-11-12T02:56:15.440Z,6.97
2022-11-12T03:01:17.252Z,9.07
2022-11-12T03:06:19.125Z,7.10
2022-11-12T03:11:20.898Z,7.68
2022-11-12T03:16:22.565Z,8.27
2022-11-12T03:21:24.221Z,7.80
2022-11-12T03:26:25.941Z,8.75
2022-11-12T03:31:27.629Z,12.23
2022-11-12T03:36:29.451Z,8.77
2022-11-12T03:41:31.137Z,10.52
2022-11-12T03:46:32.809Z,13.52
2022-11-12T03:51:34.521Z,14.68
2022-11-12T03:56:36.276Z,8.90
2022-11-12T04:01:38.167Z,11.85
2022-11-12T04:06:39.965Z,9.23
2022-11-12T04:11:41.700Z,13.63
2022-11-12T04:16:43.398Z,11.68
2022-11-12T04:21:52.717Z,8.35
2022-11-12T04:26:54.418Z,7.30
2022-11-12T04:31:56.081Z,7.60
2022-11-12T04:36:57.769Z,8.52
2022-11-12T04:41:59.864Z,7.87
2022-11-12T04:47:01.527Z,7.43
2022-11-12T04:52:03.416Z,7.57
2022-11-12T04:57:05.095Z,7.90
2022-11-12T05:02:06.808Z,8.05
2022-11-12T05:07:08.856Z,8.52
2022-11-12T05:12:10.921Z,8.15
2022-11-12T05:17:12.618Z,11.70
2022-11-12T05:22:40.305Z,7.60
2022-11-12T05:27:35.963Z,7.57
2022-11-12T05:32:37.647Z,10.52
2022-11-12T05:37:39.430Z,8.02
2022-11-12T05:42:41.122Z,8.10
2022-11-12T05:47:42.812Z,8.02
2022-11-12T05:52:45.634Z,6.97
2022-11-12T05:57:47.283Z,6.88
2022-11-12T06:02:49.053Z,8.63
2022-11-12T06:07:51.006Z,10.73
2022-11-12T06:12:52.686Z,7.25
2022-11-12T06:17:54.802Z,13.13
2022-11-12T06:22:56.885Z,9.48
2022-11-12T06:27:58.586Z,7.90
2022-11-12T06:33:00.259Z,10.02
2022-11-12T06:38:01.982Z,8.05
2022-11-12T06:43:03.695Z,7.15
2022-11-12T06:48:05.436Z,6.97
2022-11-12T06:53:07.112Z,7.03
2022-11-12T06:58:08.818Z,7.50
2022-11-12T07:03:13.539Z,7.55
2022-11-12T07:08:15.187Z,7.43
2022-11-12T07:13:16.856Z,9.17
2022-11-12T07:18:18.555Z,7.97
2022-11-12T07:23:20.267Z,7.85
2022-11-12T07:28:21.965Z,7.30
2022-11-12T07:33:23.721Z,7.38
2022-11-12T07:38:26.539Z,8.17
2022-11-12T07:43:36.290Z,7.65
2022-11-12T07:48:39.094Z,7.47
2022-11-12T07:53:41.538Z,7.10
2022-11-12T07:58:44.058Z,7.63
2022-11-12T08:03:45.763Z,7.82
2022-11-12T08:08:47.804Z,8.97
2022-11-12T08:13:50.341Z,8.65
2022-11-12T08:18:52.039Z,7.70
2022-11-12T08:23:53.713Z,6.57
2022-11-12T08:28:55.360Z,9.63
2022-11-12T08:33:57.076Z,7.67
2022-11-12T08:38:58.770Z,10.60
2022-11-12T08:44:04.236Z,9.35
2022-11-12T08:49:09.915Z,8.73
2022-11-12T08:54:11.600Z,11.07
2022-11-12T08:59:13.254Z,18.33
2022-11-12T09:04:14.947Z,10.85
2022-11-12T09:09:16.613Z,14.10
2022-11-12T09:14:18.325Z,10.57
2022-11-12T09:19:20.052Z,11.65
2022-11-12T09:24:21.672Z,14.35
2022-11-12T09:29:23.529Z,15.10
2022-11-12T09:34:25.575Z,17.13
2022-11-12T09:39:27.261Z,17.30
2022-11-12T09:44:36.535Z,20.58
2022-11-12T09:49:45.164Z,21.70
2022-11-12T09:54:55.289Z,19.90
2022-11-12T09:59:57.383Z,19.63
2022-11-12T10:05:20.519Z,17.40
2022-11-12T10:10:53.178Z,15.20
2022-11-12T10:16:21.355Z,16.52
2022-11-12T10:21:22.999Z,14.00
2022-11-12T10:26:26.414Z,12.57
2022-11-12T10:31:28.291Z,15.40
2022-11-12T10:36:35.931Z,12.53
2022-11-12T10:41:37.766Z,12.70
2022-11-12T10:46:39.933Z,10.00
2022-11-12T10:51:41.806Z,9.20
2022-11-12T10:56:43.492Z,9.65
2022-11-12T11:01:53.760Z,11.35
2022-11-12T11:07:01.598Z,9.33
2022-11-12T11:12:03.639Z,7.95
2022-11-12T11:17:06.113Z,8.98
2022-11-12T11:22:36.808Z,9.40
2022-11-12T11:27:45.418Z,10.70
2022-11-12T11:33:22.342Z,9.43
2022-11-12T11:38:38.968Z,8.52
2022-11-12T11:43:46.614Z,8.02
2022-11-12T11:49:03.315Z,7.43
2022-11-12T11:54:26.317Z,8.98
2022-11-12T11:59:41.656Z,8.13
2022-11-12T12:05:09.655Z,9.73
2022-11-12T12:11:08.266Z,7.77
2022-11-12T12:16:35.428Z,7.10
2022-11-12T12:21:44.069Z,7.15
2022-11-12T12:26:50.204Z,8.52
2022-11-12T12:32:00.105Z,9.27
2022-11-12T12:37:33.323Z,12.90
2022-11-12T12:43:00.801Z,8.55
2022-11-12T12:48:05.758Z,9.73
2022-11-12T12:53:27.222Z,9.93
2022-11-12T12:58:30.401Z,10.32
2022-11-12T13:03:44.562Z,9.20
2022-11-12T13:08:46.858Z,9.55
2022-11-12T13:13:48.615Z,8.02
2022-11-12T13:18:50.254Z,10.55
2022-11-12T13:23:57.049Z,9.57
2022-11-12T13:29:29.352Z,9.77
2022-11-12T13:34:33.410Z,10.77
2022-11-12T13:39:35.883Z,8.82
2022-11-12T13:44:37.690Z,8.43
2022-11-12T13:49:39.629Z,10.30
2022-11-12T13:54:42.212Z,9.20
2022-11-12T13:59:46.404Z,9.98
2022-11-12T14:04:48.517Z,7.35
2022-11-12T14:10:20.849Z,9.63
2022-11-12T14:15:32.496Z,8.07
2022-11-12T14:20:39.624Z,7.70
2022-11-12T14:25:51.520Z,9.85
2022-11-12T14:30:53.231Z,8.95
2022-11-12T14:36:01.945Z,7.75
2022-11-12T14:41:15.864Z,8.70
2022-11-12T14:46:27.602Z,8.30
2022-11-12T14:51:32.145Z,6.72
2022-11-12T14:56:39.288Z,7.63
2022-11-12T15:02:29.438Z,7.30
2022-11-12T15:07:32.036Z,10.37
2022-11-12T15:12:34.631Z,6.20
2022-11-12T15:17:37.481Z,8.75
2022-11-12T15:22:39.327Z,10.53
2022-11-12T15:27:42.965Z,7.30
2022-11-12T15:32:48.188Z,7.75
2022-11-12T15:37:50.031Z,6.88
2022-11-12T15:42:52.458Z,6.63
2022-11-12T15:51:17.354Z,7.65
2022-11-12T15:56:20.745Z,8.30
2022-11-12T16:01:22.640Z,7.80
2022-11-12T16:06:24.360Z,6.43
2022-11-12T16:11:26.127Z,8.25
2022-11-12T16:16:28.205Z,11.77
2022-11-12T16:21:29.940Z,8.77
2022-11-12T16:26:34.165Z,9.07
2022-11-12T16:31:35.921Z,9.40
2022-11-12T16:36:39.396Z,11.37
2022-11-12T16:41:41.121Z,13.85
2022-11-12T16:46:43.732Z,13.83
2022-11-12T16:51:46.222Z,11.73
2022-11-12T17:00:42.395Z,15.82
2022-11-12T17:05:44.778Z,13.95
2022-11-12T17:10:46.533Z,14.70
2022-11-12T17:15:48.310Z,12.00
2022-11-12T17:20:51.489Z,13.68
2022-11-12T17:26:04.463Z,13.52
2022-11-12T17:31:10.598Z,13.25
2022-11-12T17:36:14.941Z,14.52
2022-11-12T17:41:16.613Z,14.00
2022-11-12T17:46:18.337Z,17.73
2022-11-12T17:51:22.141Z,14.00
2022-11-12T17:56:24.483Z,18.10
2022-11-12T18:01:28.509Z,20.25
2022-11-12T18:06:33.848Z,18.53
2022-11-12T18:11:50.483Z,17.02
2022-11-12T18:16:52.240Z,14.85
2022-11-12T18:21:53.919Z,18.10
2022-11-12T18:26:56.193Z,17.50
2022-11-12T18:31:58.607Z,17.92
2022-11-12T18:37:00.284Z,19.55
2022-11-12T18:42:02.127Z,16.83
2022-11-12T18:47:03.848Z,15.03
2022-11-12T18:52:05.646Z,14.70
2022-11-12T18:57:07.463Z,15.00
2022-11-12T19:02:12.126Z,13.57
2022-11-12T19:07:13.891Z,13.23
2022-11-12T19:12:15.675Z,12.00
2022-11-12T19:17:17.353Z,11.13
2022-11-12T19:22:19.102Z,12.57
2022-11-12T19:27:20.828Z,10.20
2022-11-12T19:32:22.495Z,12.65
2022-11-12T19:37:33.631Z,13.77
2022-11-12T19:42:36.171Z,13.60
2022-11-12T19:47:37.873Z,13.73
2022-11-12T19:52:39.587Z,13.65
2022-11-12T19:57:44.174Z,14.70
2022-11-12T20:02:45.941Z,14.13
2022-11-12T20:07:48.421Z,16.73
2022-11-12T20:12:50.141Z,15.43
2022-11-12T20:17:51.910Z,15.57
2022-11-12T20:22:53.591Z,13.32
2022-11-12T20:27:55.346Z,14.63
2022-11-12T20:32:57.059Z,16.63
2022-11-12T20:37:58.856Z,15.57
2022-11-12T20:43:00.722Z,16.25
2022-11-12T20:48:02.470Z,16.80
2022-11-12T20:53:04.191Z,19.23
2022-11-12T20:58:05.969Z,17.47
2022-11-12T21:03:07.785Z,23.23
2022-11-12T21:08:09.512Z,19.75
2022-11-12T21:13:11.237Z,18.98
2022-11-12T21:18:12.988Z,18.30
2022-11-12T21:23:14.801Z,18.10
2022-11-12T21:28:16.483Z,18.75
2022-11-12T21:33:18.238Z,21.13
2022-11-12T21:38:19.909Z,16.38
2022-11-12T21:43:21.709Z,20.50
2022-11-12T21:48:23.626Z,17.15
2022-11-12T21:53:25.279Z,16.17
2022-11-12T21:58:29.162Z,15.88
2022-11-12T22:03:31.442Z,13.65
2022-11-12T22:08:33.410Z,14.77
2022-11-12T22:13:35.540Z,13.27
2022-11-12T22:18:37.691Z,13.90
2022-11-12T22:23:39.738Z,13.95
2022-11-12T22:28:42.153Z,17.40
2022-11-12T22:33:43.945Z,17.08
2022-11-12T22:38:46.977Z,17.30
2022-11-12T22:43:49.983Z,18.27
2022-11-12T22:48:51.768Z,15.10
2022-11-12T22:54:04.791Z,16.00
2022-11-12T22:59:06.446Z,16.75
2022-11-12T23:04:08.585Z,18.17
2022-11-12T23:09:14.642Z,16.98
2022-11-12T23:14:16.306Z,19.48
2022-11-12T23:19:18.022Z,16.97
2022-11-12T23:24:20.180Z,17.70
2022-11-12T23:29:22.067Z,18.48
2022-11-12T23:34:23.875Z,18.35
2022-11-12T23:39:25.554Z,20.48
2022-11-12T23:44:27.352Z,19.58
2022-11-12T23:49:29.060Z,21.67
2022-11-12T23:54:30.769Z,20.50
2022-11-12T23:59:32.486Z,18.75
